createdAt,value
2023-01-29T00:00:08.615Z,97730.99
2023-01-29T00:02:39.945Z,97729.94
2023-01-29T00:05:25.892Z,97728.30
2023-01-29T00:07:37.801Z,97734.98
2023-01-29T00:10:06.431Z,97734.42
2023-01-29T00:12:34.880Z,97736.03
2023-01-29T00:15:02.830Z,97738.14
2023-01-29T00:17:30.896Z,97734.69
2023-01-29T00:19:58.595Z,97745.05
2023-01-29T00:22:26.908Z,97746.88
2023-01-29T00:24:54.970Z,97750.34
2023-01-29T00:27:22.429Z,97750.32
2023-01-29T00:29:51.907Z,97759.11
2023-01-29T00:32:19.595Z,97756.92
2023-01-29T00:34:47.638Z,97761.13
2023-01-29T00:37:16.941Z,97756.58
2023-01-29T00:39:48.201Z,97756.04
2023-01-29T00:42:32.281Z,97762.71
2023-01-29T00:45:00.084Z,97757.34
2023-01-29T00:47:32.698Z,97770.09
2023-01-29T00:50:03.668Z,97779.33
2023-01-29T00:52:31.917Z,97776.06
2023-01-29T00:55:00.538Z,97776.90
2023-01-29T00:57:31.595Z,97779.59
2023-01-29T00:59:59.195Z,97777.47
2023-01-29T01:02:45.993Z,97774.30
2023-01-29T01:05:19.795Z,97772.20
2023-01-29T01:07:50.170Z,97775.42
2023-01-29T01:10:27.601Z,97779.69
2023-01-29T01:13:03.025Z,97772.22
2023-01-29T01:15:34.761Z,97765.29
2023-01-29T01:18:03.348Z,97773.30
2023-01-29T01:20:33.905Z,97775.95
2023-01-29T01:23:01.522Z,97769.29
2023-01-29T01:25:29.335Z,97772.99
2023-01-29T01:30:27.678Z,97771.09
2023-01-29T01:32:56.209Z,97771.92
2023-01-29T01:35:23.881Z,97776.46
2023-01-29T01:37:51.527Z,97779.42
2023-01-29T01:40:23.139Z,97777.56
2023-01-29T01:42:55.688Z,97775.45
2023-01-29T01:45:35.956Z,97774.39
2023-01-29T01:48:17.471Z,97774.16
2023-01-29T01:50:53.159Z,97780.52
2023-01-29T01:53:38.703Z,97781.83
2023-01-29T01:56:11.880Z,97779.62
2023-01-29T01:58:52.448Z,97783.33
2023-01-29T02:01:28.781Z,97783.33
2023-01-29T02:04:19.700Z,97784.43
2023-01-29T02:07:06.910Z,97790.59
2023-01-29T02:10:07.518Z,97783.42
2023-01-29T02:12:38.271Z,97794.09
2023-01-29T02:15:07.840Z,97795.36
2023-01-29T02:17:35.904Z,97788.39
2023-01-29T02:20:20.448Z,97785.47
2023-01-29T02:23:28.471Z,97785.97
2023-01-29T02:26:38.455Z,97793.70
2023-01-29T02:29:38.578Z,97792.89
2023-01-29T02:32:41.662Z,97797.69
2023-01-29T02:35:45.668Z,97796.30
2023-01-29T02:38:41.247Z,97796.03
2023-01-29T02:41:34.891Z,97794.69
2023-01-29T02:44:24.390Z,97806.19
2023-01-29T02:47:05.639Z,97797.93
2023-01-29T02:49:47.689Z,97797.99
2023-01-29T02:52:30.021Z,97796.13
2023-01-29T02:55:04.176Z,97801.47
2023-01-29T02:57:37.591Z,97800.93
2023-01-29T03:00:17.261Z,97806.83
2023-01-29T03:03:18.849Z,97809.50
2023-01-29T03:05:58.670Z,97815.36
2023-01-29T03:08:42.391Z,97822.27
2023-01-29T03:11:14.397Z,97817.16
2023-01-29T03:13:54.287Z,97824.89
2023-01-29T03:16:45.931Z,97824.39
2023-01-29T03:19:27.779Z,97826.26
2023-01-29T03:21:58.863Z,97830.80
2023-01-29T03:25:12.122Z,97831.56
2023-01-29T03:28:09.963Z,97840.66
2023-01-29T03:31:03.262Z,97839.09
2023-01-29T03:33:38.282Z,97839.62
2023-01-29T03:36:17.149Z,97843.66
2023-01-29T03:38:45.758Z,97838.87
2023-01-29T03:41:28.042Z,97843.14
2023-01-29T03:44:04.177Z,97839.93
2023-01-29T03:47:15.112Z,97840.73
2023-01-29T03:50:06.446Z,97841.00
2023-01-29T03:53:01.122Z,97849.03
2023-01-29T03:56:06.487Z,97840.50
2023-01-29T03:58:45.759Z,97848.23
2023-01-29T04:01:42.604Z,97839.47
2023-01-29T04:04:22.458Z,97836.30
2023-01-29T04:06:52.659Z,97844.84
2023-01-29T04:09:34.343Z,97846.44
2023-01-29T04:12:10.210Z,97846.97
2023-01-29T04:14:39.850Z,97845.34
2023-01-29T04:17:21.856Z,97842.91
2023-01-29T04:19:54.447Z,97843.17
2023-01-29T04:22:32.818Z,97840.47
2023-01-29T04:25:08.457Z,97842.60
2023-01-29T04:27:59.818Z,97843.37
2023-01-29T04:31:03.517Z,97850.56
2023-01-29T04:33:54.951Z,97847.90
2023-01-29T04:36:35.199Z,97841.69
2023-01-29T04:39:39.068Z,97847.25
2023-01-29T04:42:24.066Z,97850.15
2023-01-29T04:45:12.267Z,97847.75
2023-01-29T04:47:51.659Z,97847.75
2023-01-29T04:50:27.945Z,97853.05
2023-01-29T04:53:04.221Z,97850.91
2023-01-29T04:55:39.879Z,97857.03
2023-01-29T04:58:44.551Z,97858.06
2023-01-29T05:01:16.699Z,97854.33
2023-01-29T05:03:49.478Z,97848.47
2023-01-29T05:06:18.912Z,97849.76
2023-01-29T05:08:49.756Z,97856.42
2023-01-29T05:11:18.959Z,97864.42
2023-01-29T05:13:49.050Z,97862.28
2023-01-29T05:16:24.851Z,97871.08
2023-01-29T05:18:53.611Z,97876.68
2023-01-29T05:21:22.845Z,97883.34
2023-01-29T05:24:16.214Z,97885.74
2023-01-29T05:27:05.420Z,97891.56
2023-01-29T05:29:33.380Z,97893.17
2023-01-29T05:32:01.443Z,97888.36
2023-01-29T05:34:29.182Z,97898.22
2023-01-29T05:36:56.682Z,97899.23
2023-01-29T05:39:24.312Z,97903.45
2023-01-29T05:41:51.899Z,97900.21
2023-01-29T05:44:19.925Z,97912.47
2023-01-29T05:46:47.547Z,97905.77
2023-01-29T05:49:17.763Z,97915.09
2023-01-29T05:51:45.611Z,97914.47
2023-01-29T05:54:13.318Z,97915.26
2023-01-29T05:56:41.204Z,97924.02
2023-01-29T05:59:09.049Z,97927.73
2023-01-29T06:01:37.041Z,97932.22
2023-01-29T06:04:04.856Z,97931.67
2023-01-29T06:06:32.725Z,97935.93
2023-01-29T06:09:00.393Z,97930.28
2023-01-29T06:11:28.209Z,97928.16
2023-01-29T06:13:56.006Z,97931.62
2023-01-29T06:16:23.598Z,97937.76
2023-01-29T06:18:51.236Z,97936.73
2023-01-29T06:21:20.121Z,97945.25
2023-01-29T06:23:48.054Z,97941.22
2023-01-29T06:26:16.100Z,97943.56
2023-01-29T06:28:45.402Z,97948.36
2023-01-29T06:31:33.128Z,97948.93
2023-01-29T06:33:42.567Z,97956.67
2023-01-29T06:36:10.470Z,97949.69
2023-01-29T06:38:38.125Z,97947.51
2023-01-29T06:41:13.021Z,97950.69
2023-01-29T06:43:40.678Z,97943.98
2023-01-29T06:46:08.596Z,97943.45
2023-01-29T06:48:36.758Z,97951.17
2023-01-29T06:51:06.978Z,97946.12
2023-01-29T06:53:35.633Z,97946.91
2023-01-29T06:56:04.864Z,97945.80
2023-01-29T06:58:32.940Z,97946.33
2023-01-29T07:01:09.240Z,97948.78
2023-01-29T07:03:37.646Z,97949.63
2023-01-29T07:06:06.453Z,97952.34
2023-01-29T07:08:40.728Z,97951.50
2023-01-29T07:11:08.715Z,97960.33
2023-01-29T07:13:36.475Z,97953.67
2023-01-29T07:16:06.242Z,97951.59
2023-01-29T07:18:33.817Z,97952.63
2023-01-29T07:21:06.703Z,97941.22
2023-01-29T07:23:35.476Z,97936.96
2023-01-29T07:26:05.141Z,97948.99
2023-01-29T07:28:37.831Z,97951.92
2023-01-29T07:31:06.544Z,97957.05
2023-01-29T07:33:35.023Z,97958.16
2023-01-29T07:36:08.289Z,97960.28
2023-01-29T07:38:35.690Z,97955.50
2023-01-29T07:41:03.821Z,97957.58
2023-01-29T07:43:31.528Z,97959.70
2023-01-29T07:46:04.240Z,97946.75
2023-01-29T07:48:31.879Z,97951.88
2023-01-29T07:50:59.726Z,97942.86
2023-01-29T07:53:28.754Z,97949.03
2023-01-29T07:55:57.343Z,97946.64
2023-01-29T07:58:25.245Z,97948.81
2023-01-29T08:00:52.968Z,97949.89
2023-01-29T08:03:20.921Z,97948.81
2023-01-29T08:05:48.612Z,97950.69
2023-01-29T08:08:16.619Z,97952.33
2023-01-29T08:10:44.646Z,97944.60
2023-01-29T08:13:12.362Z,97927.55
2023-01-29T08:15:45.629Z,97939.05
2023-01-29T08:18:14.071Z,97942.83
2023-01-29T08:20:42.008Z,97941.01
2023-01-29T08:23:14.762Z,97943.16
2023-01-29T08:25:42.684Z,97950.12
2023-01-29T08:28:11.830Z,97959.41
2023-01-29T08:30:40.056Z,97957.05
2023-01-29T08:33:07.646Z,97958.97
2023-01-29T08:35:35.293Z,97962.22
2023-01-29T08:38:05.123Z,97971.59
2023-01-29T08:40:35.205Z,97973.23
2023-01-29T08:43:07.841Z,97983.38
2023-01-29T08:45:40.538Z,97977.28
2023-01-29T08:48:09.009Z,97985.28
2023-01-29T08:50:37.712Z,97983.38
2023-01-29T08:53:08.218Z,97986.13
2023-01-29T08:55:40.805Z,97989.90
2023-01-29T08:58:11.005Z,97981.90
2023-01-29T09:00:39.304Z,97994.79
2023-01-29T09:03:07.376Z,97983.09
2023-01-29T09:05:37.181Z,97976.77
2023-01-29T09:08:05.743Z,97977.58
2023-01-29T09:10:34.437Z,97982.42
2023-01-29T09:13:02.848Z,97975.22
2023-01-29T09:15:31.056Z,97981.13
2023-01-29T09:18:02.332Z,97973.42
2023-01-29T09:20:30.013Z,97980.94
2023-01-29T09:22:58.725Z,97968.66
2023-01-29T09:25:26.242Z,97969.50
2023-01-29T09:27:54.556Z,97962.59
2023-01-29T09:30:22.336Z,97963.46
2023-01-29T09:32:53.596Z,97961.59
2023-01-29T09:35:21.156Z,97968.53
2023-01-29T09:37:49.973Z,97967.43
2023-01-29T09:40:51.219Z,97965.53
2023-01-29T09:43:24.197Z,97951.41
2023-01-29T09:45:59.561Z,97957.25
2023-01-29T09:48:31.709Z,97961.95
2023-01-29T09:51:04.118Z,97956.08
2023-01-29T09:53:49.255Z,97947.50
2023-01-29T09:56:21.237Z,97941.66
2023-01-29T09:58:48.774Z,97942.77
2023-01-29T10:01:30.405Z,97937.39
2023-01-29T10:04:21.745Z,97932.06
2023-01-29T10:07:15.106Z,97928.82
2023-01-29T10:10:21.169Z,97927.75
2023-01-29T10:13:01.770Z,97926.19
2023-01-29T10:15:55.907Z,97921.72
2023-01-29T10:18:40.976Z,97923.35
2023-01-29T10:21:30.907Z,97920.68
2023-01-29T10:24:24.721Z,97924.12
2023-01-29T10:26:52.687Z,97923.59
2023-01-29T10:29:21.691Z,97925.95
2023-01-29T10:31:57.096Z,97923.35
2023-01-29T10:34:49.982Z,97918.08
2023-01-29T10:37:42.035Z,97927.95
2023-01-29T10:40:23.311Z,97921.02
2023-01-29T10:43:05.548Z,97919.73
2023-01-29T10:45:57.341Z,97914.93
2023-01-29T10:48:48.606Z,97912.30
2023-01-29T10:51:53.984Z,97911.73
2023-01-29T10:54:42.273Z,97919.91
2023-01-29T10:57:58.091Z,97915.64
2023-01-29T11:00:31.279Z,97919.41
2023-01-29T11:05:50.828Z,97913.91
2023-01-29T11:08:23.321Z,97916.81
2023-01-29T11:11:17.386Z,97915.48
2023-01-29T11:13:59.729Z,97910.70
2023-01-29T11:16:30.006Z,97911.48
2023-01-29T11:19:01.089Z,97909.91
2023-01-29T11:21:29.858Z,97904.07
2023-01-29T11:24:18.248Z,97897.70
2023-01-29T11:26:49.615Z,97900.09
2023-01-29T11:29:45.639Z,97896.89
2023-01-29T11:32:18.455Z,97899.03
2023-01-29T11:35:06.983Z,97903.84
2023-01-29T11:37:40.156Z,97898.47
2023-01-29T11:40:21.953Z,97904.73
2023-01-29T11:42:52.339Z,97908.39
2023-01-29T11:45:27.132Z,97912.33
2023-01-29T11:47:57.029Z,97907.71
2023-01-29T11:50:31.298Z,97905.58
2023-01-29T11:53:00.706Z,97901.01
2023-01-29T11:55:48.215Z,97889.80
2023-01-29T11:58:12.025Z,97881.00
2023-01-29T12:00:41.986Z,97886.07
2023-01-29T12:03:35.338Z,97891.10
2023-01-29T12:06:24.526Z,97888.66
2023-01-29T12:09:05.839Z,97886.44
2023-01-29T12:11:35.330Z,97891.65
2023-01-29T12:14:06.361Z,97885.78
2023-01-29T12:16:48.187Z,97882.36
2023-01-29T12:19:35.808Z,97882.18
2023-01-29T12:22:14.880Z,97881.45
2023-01-29T12:24:56.991Z,97884.44
2023-01-29T12:27:45.334Z,97875.14
2023-01-29T12:30:20.218Z,97879.74
2023-01-29T12:33:16.492Z,97875.44
2023-01-29T12:35:52.879Z,97876.77
2023-01-29T12:38:23.385Z,97873.84
2023-01-29T12:40:59.208Z,97872.47
2023-01-29T12:43:44.405Z,97871.14
2023-01-29T12:46:20.910Z,97875.09
2023-01-29T12:48:50.853Z,97863.02
2023-01-29T12:51:24.040Z,97860.28
2023-01-29T12:54:09.101Z,97856.55
2023-01-29T12:56:43.420Z,97862.94
2023-01-29T12:59:34.822Z,97866.41
2023-01-29T13:02:26.135Z,97867.74
2023-01-29T13:05:08.341Z,97873.11
2023-01-29T13:07:44.423Z,97865.69
2023-01-29T13:10:20.425Z,97874.48
2023-01-29T13:12:56.516Z,97864.12
2023-01-29T13:15:38.292Z,97866.49
2023-01-29T13:18:46.571Z,97871.28
2023-01-29T13:21:18.439Z,97867.55
2023-01-29T13:23:56.588Z,97867.55
2023-01-29T13:26:25.974Z,97869.19
2023-01-29T13:28:54.975Z,97864.39
2023-01-29T13:31:40.681Z,97868.93
2023-01-29T13:34:30.993Z,97873.95
2023-01-29T13:37:23.515Z,97861.03
2023-01-29T13:39:53.725Z,97867.92
2023-01-29T13:42:41.830Z,97864.38
2023-01-29T13:45:23.546Z,97868.60
2023-01-29T13:47:52.802Z,97869.92
2023-01-29T13:50:31.768Z,97866.20
2023-01-29T13:53:02.828Z,97874.69
2023-01-29T13:55:39.766Z,97874.46
2023-01-29T13:58:15.367Z,97876.64
2023-01-29T14:00:50.053Z,97880.63
2023-01-29T14:03:39.854Z,97878.45
2023-01-29T14:06:01.075Z,97879.97
2023-01-29T14:08:40.073Z,97881.57
2023-01-29T14:11:22.579Z,97881.17
2023-01-29T14:13:51.875Z,97888.34
2023-01-29T14:16:25.013Z,97883.25
2023-01-29T14:19:02.215Z,97890.38
2023-01-29T14:21:33.668Z,97880.26
2023-01-29T14:24:15.454Z,97878.13
2023-01-29T14:26:46.961Z,97879.56
2023-01-29T14:29:29.062Z,97886.48
2023-01-29T14:32:15.375Z,97879.60
2023-01-29T14:34:50.210Z,97887.61
2023-01-29T14:37:22.541Z,97885.77
2023-01-29T14:40:01.567Z,97882.01
2023-01-29T14:42:49.238Z,97882.01
2023-01-29T14:45:27.885Z,97883.56
2023-01-29T14:48:12.999Z,97881.95
2023-01-29T14:50:48.055Z,97879.30
2023-01-29T14:53:24.216Z,97879.55
2023-01-29T14:55:59.554Z,97884.88
2023-01-29T14:58:49.734Z,97878.72
2023-01-29T15:01:25.472Z,97882.45
2023-01-29T15:04:13.893Z,97876.58
2023-01-29T15:07:01.421Z,97882.44
2023-01-29T15:09:37.583Z,97879.51
2023-01-29T15:12:20.393Z,97889.16
2023-01-29T15:15:17.652Z,97884.35
2023-01-29T15:18:09.151Z,97895.77
2023-01-29T15:20:40.057Z,97896.55
2023-01-29T15:23:27.615Z,97884.05
2023-01-29T15:26:01.085Z,97884.94
2023-01-29T15:28:31.563Z,97886.36
2023-01-29T15:31:07.506Z,97893.02
2023-01-29T15:33:39.828Z,97892.76
2023-01-29T15:36:11.822Z,97901.28
2023-01-29T15:38:39.568Z,97900.66
2023-01-29T15:41:23.224Z,97899.81
2023-01-29T15:43:58.615Z,97902.42
2023-01-29T15:46:30.774Z,97904.03
2023-01-29T15:49:03.665Z,97908.02
2023-01-29T15:51:31.717Z,97901.35
2023-01-29T15:54:15.488Z,97902.42
2023-01-29T15:56:52.065Z,97906.20
2023-01-29T15:59:26.965Z,97887.83
2023-01-29T16:01:55.879Z,97883.88
2023-01-29T16:04:28.345Z,97891.34
2023-01-29T16:06:57.911Z,97896.66
2023-01-29T16:09:28.121Z,97900.03
2023-01-29T16:11:58.743Z,97909.66
2023-01-29T16:14:28.401Z,97901.09
2023-01-29T16:16:56.198Z,97899.75
2023-01-29T16:19:28.293Z,97895.98
2023-01-29T16:22:03.642Z,97902.91
2023-01-29T16:24:34.473Z,97901.04
2023-01-29T16:27:12.711Z,97900.25
2023-01-29T16:29:40.442Z,97905.94
2023-01-29T16:32:11.616Z,97906.48
2023-01-29T16:34:47.165Z,97904.87
2023-01-29T16:37:31.106Z,97911.27
2023-01-29T16:39:59.385Z,97908.59
2023-01-29T16:42:29.669Z,97910.63
2023-01-29T16:45:08.300Z,97907.11
2023-01-29T16:47:40.917Z,97904.13
2023-01-29T16:50:40.521Z,97903.56
2023-01-29T16:53:18.602Z,97897.75
2023-01-29T16:55:49.381Z,97897.59
2023-01-29T16:58:25.017Z,97899.00
2023-01-29T17:01:00.194Z,97897.72
2023-01-29T17:03:30.749Z,97899.55
2023-01-29T17:05:59.746Z,97898.70
2023-01-29T17:08:33.567Z,97906.91
2023-01-29T17:11:02.061Z,97901.04
2023-01-29T17:13:42.631Z,97892.36
2023-01-29T17:16:24.537Z,97897.12
2023-01-29T17:18:52.604Z,97897.25
2023-01-29T17:21:21.020Z,97901.14
2023-01-29T17:23:48.826Z,97896.84
2023-01-29T17:26:16.839Z,97893.00
2023-01-29T17:28:45.797Z,97888.98
2023-01-29T17:31:13.388Z,97887.29
2023-01-29T17:33:43.123Z,97894.42
2023-01-29T17:36:14.228Z,97891.42
2023-01-29T17:38:42.380Z,97887.16
2023-01-29T17:41:25.847Z,97881.79
2023-01-29T17:43:54.177Z,97888.39
2023-01-29T17:46:22.209Z,97894.24
2023-01-29T17:48:50.199Z,97895.30
2023-01-29T17:51:18.617Z,97889.50
2023-01-29T17:53:47.303Z,97889.77
2023-01-29T17:56:29.007Z,97891.86
2023-01-29T17:58:56.742Z,97900.89
2023-01-29T18:01:24.561Z,97895.63
2023-01-29T18:03:52.284Z,97900.96
2023-01-29T18:06:28.718Z,97900.96
2023-01-29T18:08:56.465Z,97903.93
2023-01-29T18:11:24.724Z,97902.02
2023-01-29T18:13:52.813Z,97902.07
2023-01-29T18:16:22.250Z,97902.30
2023-01-29T18:18:51.729Z,97907.34
2023-01-29T18:21:19.313Z,97905.36
2023-01-29T18:23:46.899Z,97908.33
2023-01-29T18:26:17.584Z,97910.47
2023-01-29T18:28:45.088Z,97913.60
2023-01-29T18:31:14.349Z,97909.97
2023-01-29T18:33:42.367Z,97909.97
2023-01-29T18:36:10.002Z,97910.55
2023-01-29T18:38:37.781Z,97905.75
2023-01-29T18:41:11.125Z,97916.62
2023-01-29T18:43:39.789Z,97913.20
2023-01-29T18:46:08.158Z,97915.34
2023-01-29T18:48:36.404Z,97916.41
2023-01-29T18:51:04.772Z,97923.84
2023-01-29T18:53:32.981Z,97921.66
2023-01-29T18:56:04.313Z,97920.05
2023-01-29T18:58:38.869Z,97925.52
2023-01-29T19:01:11.222Z,97924.17
2023-01-29T19:03:40.231Z,97924.17
2023-01-29T19:06:10.966Z,97920.08
2023-01-29T19:08:40.279Z,97921.13
2023-01-29T19:11:08.554Z,97917.06
2023-01-29T19:13:37.678Z,97917.06
2023-01-29T19:16:09.883Z,97930.69
2023-01-29T19:18:38.280Z,97934.70
2023-01-29T19:21:12.553Z,97932.88
2023-01-29T19:23:41.873Z,97932.88
2023-01-29T19:26:10.658Z,97923.98
2023-01-29T19:28:38.100Z,97930.23
2023-01-29T19:31:05.801Z,97930.23
2023-01-29T19:33:33.562Z,97930.05
2023-01-29T19:36:02.285Z,97940.21
2023-01-29T19:38:31.635Z,97937.55
2023-01-29T19:41:00.128Z,97938.60
2023-01-29T19:43:31.886Z,97940.68
2023-01-29T19:46:00.872Z,97938.35
2023-01-29T19:48:29.186Z,97946.71
2023-01-29T19:50:59.794Z,97944.00
2023-01-29T19:53:29.227Z,97945.13
2023-01-29T19:56:10.603Z,97944.55
2023-01-29T19:58:38.710Z,97942.75
2023-01-29T20:01:21.292Z,97940.06
2023-01-29T20:03:50.552Z,97943.95
2023-01-29T20:06:24.888Z,97950.13
2023-01-29T20:08:52.964Z,97941.54
2023-01-29T20:11:23.274Z,97944.05
2023-01-29T20:13:52.783Z,97945.38
2023-01-29T20:16:21.560Z,97945.86
2023-01-29T20:18:49.244Z,97951.38
2023-01-29T20:21:21.314Z,97945.78
2023-01-29T20:23:50.609Z,97940.94
2023-01-29T20:26:19.480Z,97951.86
2023-01-29T20:28:48.205Z,97946.73
2023-01-29T20:31:16.855Z,97943.92
2023-01-29T20:33:44.644Z,97943.92
2023-01-29T20:36:14.312Z,97939.93
2023-01-29T20:38:42.054Z,97948.80
2023-01-29T20:41:16.408Z,97948.46
2023-01-29T20:43:45.066Z,97943.42
2023-01-29T20:46:13.336Z,97942.02
2023-01-29T20:48:41.476Z,97942.02
2023-01-29T20:51:14.732Z,97943.34
2023-01-29T20:53:45.019Z,97937.27
2023-01-29T20:56:14.103Z,97935.44
2023-01-29T20:58:42.512Z,97928.98
2023-01-29T21:01:13.089Z,97930.31
2023-01-29T21:03:41.494Z,97931.84
2023-01-29T21:06:10.688Z,97931.05
2023-01-29T21:08:39.321Z,97920.38
2023-01-29T21:11:09.020Z,97918.34
2023-01-29T21:13:36.895Z,97922.84
2023-01-29T21:16:04.939Z,97922.06
2023-01-29T21:18:32.616Z,97923.45
2023-01-29T21:21:00.270Z,97924.17
2023-01-29T21:23:28.092Z,97927.91
2023-01-29T21:26:06.577Z,97938.02
2023-01-29T21:28:35.040Z,97933.95
2023-01-29T21:31:09.355Z,97942.13
2023-01-29T21:33:37.955Z,97929.11
2023-01-29T21:36:07.811Z,97935.87
2023-01-29T21:38:35.817Z,97930.42
2023-01-29T21:41:08.173Z,97928.02
2023-01-29T21:43:36.434Z,97928.73
2023-01-29T21:46:08.473Z,97921.45
2023-01-29T21:48:35.889Z,97919.29
2023-01-29T21:51:03.662Z,97918.48
2023-01-29T21:53:31.787Z,97913.59
2023-01-29T21:56:02.676Z,97918.42
2023-01-29T21:58:30.645Z,97922.13
2023-01-29T22:01:36.053Z,97918.14
2023-01-29T22:03:27.739Z,97919.56
2023-01-29T22:05:55.211Z,97909.70
2023-01-29T22:08:23.003Z,97911.03
2023-01-29T22:10:50.639Z,97921.39
2023-01-29T22:13:18.709Z,97918.14
2023-01-29T22:15:46.468Z,97909.81
2023-01-29T22:18:14.356Z,97909.81
2023-01-29T22:20:42.186Z,97908.48
2023-01-29T22:23:11.616Z,97914.27
2023-01-29T22:25:39.380Z,97907.53
2023-01-29T22:28:07.193Z,97906.67
2023-01-29T22:30:34.941Z,97900.03
2023-01-29T22:33:02.613Z,97900.03
2023-01-29T22:35:30.625Z,97909.14
2023-01-29T22:37:58.040Z,97908.86
2023-01-29T22:40:26.024Z,97909.23
2023-01-29T22:42:53.756Z,97909.69
2023-01-29T22:45:21.685Z,97909.69
2023-01-29T22:47:49.398Z,97900.70
2023-01-29T22:50:17.618Z,97899.70
2023-01-29T22:52:47.424Z,97897.18
2023-01-29T22:55:15.145Z,97896.91
2023-01-29T22:57:42.820Z,97893.66
2023-01-29T23:00:11.679Z,97886.74
2023-01-29T23:02:39.301Z,97891.01
2023-01-29T23:05:08.109Z,97890.45
2023-01-29T23:07:35.794Z,97885.61
2023-01-29T23:10:05.774Z,97881.53
2023-01-29T23:12:33.823Z,97887.59
2023-01-29T23:15:01.680Z,97883.33
2023-01-29T23:17:29.551Z,97876.69
2023-01-29T23:19:57.230Z,97876.41
2023-01-29T23:22:24.898Z,97872.80
2023-01-29T23:24:52.476Z,97879.41
2023-01-29T23:27:20.031Z,97879.41
2023-01-29T23:29:48.661Z,97879.94
2023-01-29T23:32:19.971Z,97883.92
2023-01-29T23:34:48.011Z,97888.70
2023-01-29T23:37:15.716Z,97894.78
2023-01-29T23:39:43.214Z,97899.23
2023-01-29T23:42:11.019Z,97891.55
2023-01-29T23:44:39.765Z,97897.44
2023-01-29T23:47:08.893Z,97889.41
2023-01-29T23:49:36.820Z,97897.63
2023-01-29T23:52:04.660Z,97897.13
2023-01-29T23:54:32.251Z,97897.13
2023-01-29T23:56:59.766Z,97899.88
2023-01-29T23:59:28.584Z,97895.89
